createdAt,value
2023-05-02T00:02:20.115Z,86.50
2023-05-02T00:04:47.195Z,86.70
2023-05-02T00:07:14.209Z,86.80
2023-05-02T00:09:41.552Z,87.00
2023-05-02T00:12:08.534Z,87.10
2023-05-02T00:14:35.897Z,87.10
2023-05-02T00:17:03.086Z,87.00
2023-05-02T00:19:30.432Z,86.90
2023-05-02T00:21:57.702Z,86.60
2023-05-02T00:24:24.825Z,86.60
2023-05-02T00:26:51.841Z,86.40
2023-05-02T00:29:19.037Z,86.30
2023-05-02T00:31:45.984Z,86.20
2023-05-02T00:34:12.990Z,86.00
2023-05-02T00:36:40.366Z,86.20
2023-05-02T00:39:07.876Z,86.00
2023-05-02T00:41:34.974Z,86.10
2023-05-02T00:44:02.270Z,86.20
2023-05-02T00:46:29.928Z,86.20
2023-05-02T00:48:57.379Z,86.30
2023-05-02T00:51:24.725Z,86.40
2023-05-02T00:53:52.673Z,86.40
2023-05-02T00:56:19.713Z,86.30
2023-05-02T00:58:47.439Z,86.20
2023-05-02T01:01:29.988Z,86.30
2023-05-02T01:04:00.274Z,86.30
2023-05-02T01:06:42.567Z,86.20
2023-05-02T01:09:13.132Z,86.00
2023-05-02T01:11:48.721Z,86.00
2023-05-02T01:14:17.292Z,85.90
2023-05-02T01:16:45.969Z,86.00
2023-05-02T01:19:20.145Z,86.10
2023-05-02T01:21:48.633Z,86.10
2023-05-02T01:24:30.622Z,86.00
2023-05-02T01:27:16.378Z,86.00
2023-05-02T01:29:44.120Z,85.70
2023-05-02T01:32:12.478Z,85.50
2023-05-02T01:34:41.003Z,85.40
2023-05-02T01:37:10.539Z,85.30
2023-05-02T01:39:38.463Z,85.10
2023-05-02T01:42:05.485Z,84.60
2023-05-02T01:44:34.337Z,84.30
2023-05-02T01:47:03.638Z,84.00
2023-05-02T01:49:31.979Z,84.10
2023-05-02T01:52:03.419Z,84.00
2023-05-02T01:54:31.158Z,83.90
2023-05-02T01:56:58.843Z,83.70
2023-05-02T01:59:26.564Z,83.50
2023-05-02T02:02:27.633Z,83.10
2023-05-02T02:04:56.863Z,82.00
2023-05-02T02:07:24.292Z,81.10
2023-05-02T02:09:53.162Z,81.00
2023-05-02T02:12:24.792Z,80.80
2023-05-02T02:14:57.131Z,80.30
2023-05-02T02:17:32.512Z,80.20
2023-05-02T02:20:01.508Z,80.70
2023-05-02T02:22:29.238Z,80.90
2023-05-02T02:24:56.937Z,81.10
2023-05-02T02:27:24.065Z,81.00
2023-05-02T02:29:51.346Z,81.10
2023-05-02T02:32:18.299Z,81.10
2023-05-02T02:34:45.522Z,81.10
2023-05-02T02:37:18.330Z,81.20
2023-05-02T02:39:52.104Z,81.10
2023-05-02T02:42:25.669Z,81.20
2023-05-02T02:44:59.153Z,81.30
2023-05-02T02:47:36.594Z,81.40
2023-05-02T02:50:05.092Z,81.60
2023-05-02T02:52:52.304Z,81.60
2023-05-02T02:55:29.822Z,81.80
2023-05-02T02:58:02.874Z,81.90
2023-05-02T03:00:32.771Z,82.00
2023-05-02T03:03:00.785Z,82.00
2023-05-02T03:05:28.449Z,82.00
2023-05-02T03:07:59.319Z,82.20
2023-05-02T03:10:26.919Z,82.20
2023-05-02T03:12:57.060Z,82.20
2023-05-02T03:15:31.580Z,82.00
2023-05-02T03:17:59.932Z,82.00
2023-05-02T03:20:27.418Z,82.20
2023-05-02T03:22:54.505Z,82.20
2023-05-02T03:25:21.683Z,82.00
2023-05-02T03:27:50.281Z,81.90
2023-05-02T03:30:17.568Z,81.90
2023-05-02T03:32:44.771Z,82.00
2023-05-02T03:35:12.630Z,82.00
2023-05-02T03:37:43.916Z,81.80
2023-05-02T03:40:11.412Z,81.80
2023-05-02T03:42:41.549Z,81.90
2023-05-02T03:45:20.496Z,81.90
2023-05-02T03:47:50.307Z,81.60
2023-05-02T03:50:19.291Z,81.50
2023-05-02T03:52:48.638Z,81.50
2023-05-02T03:55:21.478Z,81.20
2023-05-02T03:57:49.357Z,81.10
2023-05-02T04:00:17.094Z,81.10
2023-05-02T04:02:51.056Z,80.80
2023-05-02T04:05:21.613Z,80.60
2023-05-02T04:07:50.466Z,80.60
2023-05-02T04:10:18.438Z,80.50
2023-05-02T04:12:52.170Z,80.40
2023-05-02T04:15:20.593Z,80.00
2023-05-02T04:17:48.794Z,79.90
2023-05-02T04:20:16.982Z,79.70
2023-05-02T04:22:50.248Z,79.50
2023-05-02T04:25:17.753Z,79.00
2023-05-02T04:27:45.202Z,78.90
2023-05-02T04:30:15.894Z,78.80
2023-05-02T04:32:47.600Z,78.90
2023-05-02T04:35:15.692Z,78.70
2023-05-02T04:37:43.069Z,78.30
2023-05-02T04:40:10.799Z,78.10
2023-05-02T04:42:38.897Z,77.40
2023-05-02T04:45:16.232Z,77.40
2023-05-02T04:47:45.092Z,77.20
2023-05-02T04:50:12.350Z,77.40
2023-05-02T04:52:39.438Z,77.20
2023-05-02T04:55:07.070Z,77.10
2023-05-02T04:57:34.250Z,76.80
2023-05-02T05:00:03.743Z,77.00
2023-05-02T05:02:31.292Z,77.00
2023-05-02T05:05:01.890Z,76.80
2023-05-02T05:07:29.295Z,76.90
2023-05-02T05:09:57.724Z,76.60
2023-05-02T05:12:28.172Z,76.60
2023-05-02T05:14:56.536Z,76.40
2023-05-02T05:17:25.829Z,76.40
2023-05-02T05:19:53.569Z,76.00
2023-05-02T05:22:21.795Z,76.10
2023-05-02T05:24:53.448Z,75.80
2023-05-02T05:27:22.263Z,76.60
2023-05-02T05:29:49.479Z,75.70
2023-05-02T05:32:17.703Z,75.70
2023-05-02T05:37:13.612Z,74.60
2023-05-02T05:39:42.093Z,75.10
2023-05-02T05:42:10.520Z,74.80
2023-05-02T05:44:39.373Z,74.90
2023-05-02T05:47:06.574Z,75.20
2023-05-02T05:49:38.500Z,74.70
2023-05-02T05:52:08.430Z,74.60
2023-05-02T05:54:36.510Z,74.30
2023-05-02T05:57:03.748Z,74.20
2023-05-02T05:59:31.035Z,74.20
2023-05-02T06:02:00.049Z,74.20
2023-05-02T06:04:27.465Z,74.20
2023-05-02T06:06:55.459Z,73.80
2023-05-02T06:14:18.053Z,72.40
2023-05-02T06:16:48.092Z,73.10
2023-05-02T06:19:15.551Z,73.20
2023-05-02T06:21:42.659Z,72.90
2023-05-02T06:24:09.752Z,72.10
2023-05-02T06:26:37.314Z,72.00
2023-05-02T06:31:32.276Z,70.80
2023-05-02T06:33:59.442Z,71.50
2023-05-02T06:36:27.819Z,71.50
2023-05-02T06:38:54.815Z,71.80
2023-05-02T06:41:22.295Z,71.50
2023-05-02T06:43:49.252Z,70.90
2023-05-02T06:46:16.824Z,70.50
2023-05-02T06:48:43.787Z,70.20
2023-05-02T06:51:11.529Z,69.80
2023-05-02T06:53:38.724Z,69.30
2023-05-02T06:56:06.710Z,68.90
2023-05-02T06:58:33.685Z,68.90
2023-05-02T07:01:01.117Z,69.50
2023-05-02T07:03:28.254Z,69.20
2023-05-02T07:05:55.423Z,68.90
2023-05-02T07:08:23.968Z,68.60
2023-05-02T07:10:51.634Z,68.20
2023-05-02T07:13:18.708Z,67.80
2023-05-02T07:15:45.843Z,67.90
2023-05-02T07:18:12.963Z,67.70
2023-05-02T07:20:42.407Z,67.40
2023-05-02T07:25:37.362Z,66.70
2023-05-02T07:28:04.435Z,66.50
2023-05-02T07:30:31.656Z,66.50
2023-05-02T07:32:58.893Z,65.70
2023-05-02T07:35:26.147Z,66.00
2023-05-02T07:37:53.239Z,65.80
2023-05-02T07:40:20.957Z,64.60
2023-05-02T07:42:48.576Z,64.00
2023-05-02T07:45:16.021Z,63.40
2023-05-02T07:47:43.242Z,62.40
2023-05-02T07:50:11.119Z,60.80
2023-05-02T07:52:38.236Z,59.60
2023-05-02T07:55:05.541Z,58.80
2023-05-02T07:57:32.620Z,58.70
2023-05-02T08:00:00.204Z,58.20
2023-05-02T08:02:27.924Z,57.70
2023-05-02T08:04:55.037Z,56.90
2023-05-02T08:07:22.442Z,56.70
2023-05-02T08:09:49.498Z,56.30
2023-05-02T08:12:16.748Z,55.40
2023-05-02T08:14:43.916Z,55.20
2023-05-02T08:17:11.009Z,55.10
2023-05-02T08:19:38.064Z,55.50
2023-05-02T08:22:05.357Z,54.80
2023-05-02T08:24:32.441Z,55.00
2023-05-02T08:26:59.583Z,54.60
2023-05-02T08:29:26.662Z,54.20
2023-05-02T08:31:54.052Z,54.40
2023-05-02T08:34:21.275Z,55.20
2023-05-02T08:36:48.567Z,55.60
2023-05-02T08:39:17.128Z,55.10
2023-05-02T08:41:45.058Z,53.60
2023-05-02T08:44:12.115Z,53.90
2023-05-02T08:46:41.617Z,54.40
2023-05-02T08:49:10.455Z,55.50
2023-05-02T08:51:39.334Z,55.90
2023-05-02T08:54:09.732Z,55.70
2023-05-02T08:56:37.756Z,56.00
2023-05-02T08:59:06.499Z,55.00
2023-05-02T09:01:33.889Z,53.90
2023-05-02T09:04:01.064Z,53.90
2023-05-02T09:06:29.597Z,54.40
2023-05-02T09:08:59.827Z,54.80
2023-05-02T09:11:27.169Z,54.70
2023-05-02T09:13:54.205Z,53.60
2023-05-02T09:16:25.918Z,53.70
2023-05-02T09:18:54.327Z,54.90
2023-05-02T09:21:22.610Z,55.40
2023-05-02T09:23:50.482Z,55.50
2023-05-02T09:26:18.931Z,56.30
2023-05-02T09:28:50.339Z,57.00
2023-05-02T09:31:49.505Z,57.60
2023-05-02T09:34:18.753Z,57.80
2023-05-02T09:36:47.191Z,57.90
2023-05-02T09:39:15.476Z,58.70
2023-05-02T09:41:43.721Z,58.10
2023-05-02T09:44:14.594Z,57.80
2023-05-02T09:46:48.723Z,57.50
2023-05-02T09:49:19.045Z,57.00
2023-05-02T09:51:47.620Z,57.20
2023-05-02T09:54:15.365Z,56.40
2023-05-02T09:56:57.956Z,55.90
2023-05-02T09:59:25.373Z,55.60
2023-05-02T10:01:56.782Z,54.90
2023-05-02T10:04:24.615Z,54.30
2023-05-02T10:06:53.084Z,54.10
2023-05-02T10:09:21.833Z,54.30
2023-05-02T10:11:54.174Z,54.20
2023-05-02T10:14:22.819Z,54.40
2023-05-02T10:17:00.361Z,56.40
2023-05-02T10:19:30.398Z,57.80
2023-05-02T10:21:58.421Z,58.00
2023-05-02T10:24:25.986Z,57.40
2023-05-02T10:26:53.663Z,56.00
2023-05-02T10:29:20.698Z,55.70
2023-05-02T10:31:49.508Z,55.70
2023-05-02T10:34:18.195Z,56.10
2023-05-02T10:36:46.099Z,56.40
2023-05-02T10:39:13.087Z,56.30
2023-05-02T10:41:41.150Z,56.70
2023-05-02T10:44:09.029Z,57.60
2023-05-02T10:46:37.218Z,57.60
2023-05-02T10:49:06.206Z,56.60
2023-05-02T10:51:34.107Z,56.20
2023-05-02T10:54:16.431Z,55.90
2023-05-02T10:57:02.424Z,56.00
2023-05-02T10:59:38.887Z,56.40
2023-05-02T11:02:28.237Z,57.00
2023-05-02T11:05:04.941Z,58.00
2023-05-02T11:07:36.296Z,59.10
2023-05-02T11:10:15.901Z,59.70
2023-05-02T11:12:45.687Z,59.80
2023-05-02T11:15:15.533Z,60.80
2023-05-02T11:18:01.869Z,59.80
2023-05-02T11:20:29.603Z,60.20
2023-05-02T11:22:57.585Z,61.00
2023-05-02T11:25:31.774Z,61.10
2023-05-02T11:27:59.187Z,61.20
2023-05-02T11:30:45.265Z,62.10
2023-05-02T11:33:13.202Z,62.40
2023-05-02T11:35:42.262Z,62.70
2023-05-02T11:38:12.553Z,62.90
2023-05-02T11:40:39.629Z,63.20
2023-05-02T11:43:14.080Z,63.10
2023-05-02T11:45:42.649Z,63.60
2023-05-02T11:48:12.073Z,64.70
2023-05-02T11:50:48.722Z,66.00
2023-05-02T11:53:22.672Z,65.70
2023-05-02T11:55:51.193Z,65.20
2023-05-02T11:58:19.508Z,64.70
2023-05-02T12:00:47.173Z,64.60
2023-05-02T12:03:22.458Z,66.00
2023-05-02T12:05:50.420Z,66.10
2023-05-02T12:08:22.016Z,65.50
2023-05-02T12:10:49.580Z,65.00
2023-05-02T12:13:17.036Z,64.70
2023-05-02T12:15:44.246Z,64.50
2023-05-02T12:18:11.798Z,64.60
2023-05-02T12:20:39.536Z,64.40
2023-05-02T12:23:12.885Z,64.80
2023-05-02T12:25:40.781Z,65.30
2023-05-02T12:28:08.917Z,65.20
2023-05-02T12:30:38.504Z,66.10
2023-05-02T12:33:06.634Z,65.20
2023-05-02T12:35:34.599Z,62.60
2023-05-02T12:38:23.894Z,60.50
2023-05-02T12:40:57.656Z,59.20
2023-05-02T12:43:25.064Z,58.80
2023-05-02T12:46:10.229Z,59.30
2023-05-02T12:48:37.357Z,67.30
2023-05-02T12:51:05.096Z,74.30
2023-05-02T12:53:40.261Z,82.00
2023-05-02T12:56:07.683Z,89.80
2023-05-02T12:58:47.646Z,91.80
2023-05-02T13:01:15.430Z,93.70
2023-05-02T13:03:43.379Z,95.20
2023-05-02T13:06:11.274Z,95.90
2023-05-02T13:08:38.453Z,96.50
2023-05-02T13:11:05.784Z,97.90
2023-05-02T13:13:33.630Z,99.40
2023-05-02T13:16:00.816Z,99.90
2023-05-02T13:18:30.979Z,99.90
2023-05-02T13:20:58.213Z,99.90
2023-05-02T13:23:25.602Z,99.90
2023-05-02T13:25:52.663Z,99.90
2023-05-02T13:28:19.818Z,99.90
2023-05-02T13:30:46.972Z,99.90
2023-05-02T13:33:15.542Z,99.90
2023-05-02T13:35:42.671Z,99.90
2023-05-02T13:38:09.741Z,99.90
2023-05-02T13:40:36.806Z,99.90
2023-05-02T13:43:04.074Z,99.90
2023-05-02T13:45:31.272Z,99.90
2023-05-02T13:47:58.612Z,99.90
2023-05-02T13:50:25.676Z,99.90
2023-05-02T13:52:53.169Z,99.90
2023-05-02T13:55:20.171Z,99.90
2023-05-02T13:57:47.543Z,99.90
2023-05-02T14:00:14.818Z,99.90
2023-05-02T14:02:41.844Z,99.90
2023-05-02T14:05:09.201Z,99.90
2023-05-02T14:07:36.389Z,99.90
2023-05-02T14:10:03.839Z,99.90
2023-05-02T14:12:31.848Z,99.90
2023-05-02T14:14:58.952Z,99.90
2023-05-02T14:17:27.145Z,99.90
2023-05-02T14:19:54.142Z,99.90
2023-05-02T14:22:21.438Z,99.90
2023-05-02T14:24:48.321Z,99.90
2023-05-02T14:27:18.523Z,99.90
2023-05-02T14:29:45.922Z,99.90
2023-05-02T14:32:13.509Z,99.90
2023-05-02T14:34:40.809Z,99.90
2023-05-02T14:37:09.256Z,99.90
2023-05-02T14:39:36.940Z,99.90
2023-05-02T14:42:04.741Z,99.90
2023-05-02T14:44:31.946Z,99.90
2023-05-02T14:46:59.044Z,99.90
2023-05-02T14:49:26.075Z,99.90
2023-05-02T14:51:55.649Z,99.90
2023-05-02T14:54:30.803Z,99.90
2023-05-02T14:56:59.734Z,99.90
2023-05-02T14:59:30.604Z,99.90
2023-05-02T15:01:57.995Z,99.90
2023-05-02T15:04:27.405Z,99.90
2023-05-02T15:06:55.484Z,99.90
2023-05-02T15:09:23.479Z,99.90
2023-05-02T15:11:50.830Z,99.90
2023-05-02T15:14:17.950Z,99.90
2023-05-02T15:16:45.242Z,99.90
2023-05-02T15:19:12.364Z,99.90
2023-05-02T15:21:40.458Z,99.90
2023-05-02T15:24:07.406Z,99.90
2023-05-02T15:26:34.682Z,99.10
2023-05-02T15:29:01.930Z,98.30
2023-05-02T15:31:29.398Z,98.60
2023-05-02T15:33:56.438Z,98.30
2023-05-02T15:36:26.632Z,98.70
2023-05-02T15:38:53.764Z,99.20
2023-05-02T15:41:20.669Z,99.40
2023-05-02T15:43:48.064Z,98.60
2023-05-02T15:46:15.155Z,99.30
2023-05-02T15:48:42.414Z,97.40
2023-05-02T15:51:10.876Z,97.50
2023-05-02T15:53:42.348Z,97.10
2023-05-02T15:56:09.782Z,97.00
2023-05-02T15:58:37.366Z,97.30
2023-05-02T16:01:04.836Z,97.20
2023-05-02T16:03:32.345Z,98.00
2023-05-02T16:05:59.768Z,97.40
2023-05-02T16:08:27.452Z,97.80
2023-05-02T16:10:54.667Z,97.70
2023-05-02T16:13:22.082Z,98.90
2023-05-02T16:15:49.106Z,99.20
2023-05-02T16:18:16.653Z,99.50
2023-05-02T16:20:43.874Z,99.30
2023-05-02T16:23:11.178Z,99.90
2023-05-02T16:25:38.211Z,99.90
2023-05-02T16:28:05.838Z,99.90
2023-05-02T16:30:35.729Z,99.90
2023-05-02T16:33:03.882Z,99.90
2023-05-02T16:35:30.911Z,99.90
2023-05-02T16:37:58.504Z,99.90
2023-05-02T16:40:26.860Z,99.90
2023-05-02T16:42:55.687Z,99.90
2023-05-02T16:45:22.899Z,99.90
2023-05-02T16:47:50.074Z,99.90
2023-05-02T16:50:17.143Z,99.90
2023-05-02T16:52:44.659Z,99.90
2023-05-02T16:55:12.336Z,99.90
2023-05-02T16:57:39.805Z,99.50
2023-05-02T17:00:08.414Z,99.20
2023-05-02T17:02:35.826Z,98.70
2023-05-02T17:05:02.870Z,98.50
2023-05-02T17:07:29.911Z,98.60
2023-05-02T17:09:57.523Z,99.40
2023-05-02T17:12:25.895Z,99.90
2023-05-02T17:14:53.182Z,99.90
2023-05-02T17:17:23.524Z,99.90
2023-05-02T17:19:51.053Z,99.90
2023-05-02T17:22:19.143Z,99.90
2023-05-02T17:24:48.617Z,99.90
2023-05-02T17:27:17.145Z,99.80
2023-05-02T17:29:44.318Z,99.80
2023-05-02T17:32:11.762Z,99.70
2023-05-02T17:34:39.018Z,99.90
2023-05-02T17:37:07.523Z,99.90
2023-05-02T17:39:35.227Z,99.90
2023-05-02T17:42:02.746Z,99.90
2023-05-02T17:44:36.056Z,99.90
2023-05-02T17:47:04.016Z,99.90
2023-05-02T17:49:31.005Z,99.90
2023-05-02T17:51:58.054Z,99.90
2023-05-02T17:54:25.397Z,99.90
2023-05-02T17:56:52.463Z,99.90
2023-05-02T17:59:20.126Z,99.90
2023-05-02T18:01:47.156Z,99.90
2023-05-02T18:04:15.086Z,99.90
2023-05-02T18:06:42.188Z,99.90
2023-05-02T18:09:09.329Z,99.90
2023-05-02T18:11:40.086Z,99.90
2023-05-02T18:14:07.420Z,99.90
2023-05-02T18:16:36.522Z,99.90
2023-05-02T18:19:03.799Z,99.90
2023-05-02T18:21:35.008Z,99.90
2023-05-02T18:24:02.255Z,99.90
2023-05-02T18:26:29.215Z,99.90
2023-05-02T18:28:57.498Z,99.90
2023-05-02T18:31:24.598Z,99.80
2023-05-02T18:33:53.466Z,99.90
2023-05-02T18:36:28.790Z,99.90
2023-05-02T18:38:56.521Z,99.90
2023-05-02T18:41:23.578Z,99.90
2023-05-02T18:43:50.691Z,99.90
2023-05-02T18:46:17.761Z,99.90
2023-05-02T18:48:45.052Z,99.90
2023-05-02T18:51:12.220Z,99.90
2023-05-02T18:53:39.539Z,99.90
2023-05-02T18:56:13.963Z,99.90
2023-05-02T18:58:42.125Z,99.90
2023-05-02T19:01:16.114Z,99.90
2023-05-02T19:03:44.021Z,99.90
2023-05-02T19:06:11.390Z,99.90
2023-05-02T19:08:40.327Z,99.90
2023-05-02T19:11:07.446Z,99.90
2023-05-02T19:13:34.853Z,99.90
2023-05-02T19:16:01.925Z,99.90
2023-05-02T19:18:29.219Z,99.90
2023-05-02T19:20:56.257Z,99.90
2023-05-02T19:23:23.646Z,99.90
2023-05-02T19:26:04.510Z,99.90
2023-05-02T19:28:44.374Z,99.90
2023-05-02T19:31:18.959Z,99.90
2023-05-02T19:33:52.850Z,99.90
2023-05-02T19:36:20.624Z,99.90
2023-05-02T19:38:48.538Z,99.90
2023-05-02T19:41:17.145Z,99.90
2023-05-02T19:43:44.299Z,99.90
2023-05-02T19:46:11.515Z,99.90
2023-05-02T19:48:38.640Z,99.90
2023-05-02T19:51:05.691Z,99.90
2023-05-02T19:53:33.993Z,99.90
2023-05-02T19:56:01.696Z,99.90
2023-05-02T19:58:28.964Z,99.90
2023-05-02T20:00:56.280Z,99.90
2023-05-02T20:03:25.673Z,99.90
2023-05-02T20:05:53.017Z,99.70
2023-05-02T20:08:21.522Z,99.80
2023-05-02T20:10:50.393Z,99.90
2023-05-02T20:13:17.510Z,99.90
2023-05-02T20:15:44.773Z,99.70
2023-05-02T20:18:11.772Z,99.90
2023-05-02T20:20:38.745Z,99.90
2023-05-02T20:23:06.044Z,99.80
2023-05-02T20:25:32.993Z,99.90
2023-05-02T20:28:00.015Z,99.90
2023-05-02T20:30:27.302Z,99.90
2023-05-02T20:32:55.725Z,99.90
2023-05-02T20:35:23.011Z,99.90
2023-05-02T20:37:50.377Z,99.90
2023-05-02T20:40:19.088Z,99.90
2023-05-02T20:42:47.394Z,99.90
2023-05-02T20:45:14.657Z,99.90
2023-05-02T20:47:41.924Z,99.90
2023-05-02T20:50:09.563Z,99.90
2023-05-02T20:52:39.050Z,99.90
2023-05-02T20:55:06.524Z,99.90
2023-05-02T20:57:33.591Z,99.90
2023-05-02T21:00:01.299Z,99.90
2023-05-02T21:02:28.765Z,99.90
2023-05-02T21:04:56.030Z,99.90
2023-05-02T21:07:23.137Z,99.90
2023-05-02T21:09:50.193Z,99.90
2023-05-02T21:12:17.360Z,99.90
2023-05-02T21:14:44.525Z,99.90
2023-05-02T21:17:11.564Z,99.90
2023-05-02T21:19:38.855Z,99.90
2023-05-02T21:22:06.047Z,99.90
2023-05-02T21:24:33.281Z,99.90
2023-05-02T21:27:00.459Z,99.90
2023-05-02T21:29:27.852Z,99.90
2023-05-02T21:31:55.075Z,99.90
2023-05-02T21:34:22.685Z,99.90
2023-05-02T21:36:49.725Z,99.90
2023-05-02T21:39:16.835Z,99.90
2023-05-02T21:41:44.006Z,99.90
2023-05-02T21:44:11.726Z,99.90
2023-05-02T21:46:39.146Z,99.90
2023-05-02T21:49:06.238Z,99.90
2023-05-02T21:51:34.549Z,99.90
2023-05-02T21:54:01.750Z,99.90
2023-05-02T21:56:28.808Z,99.90
2023-05-02T21:58:56.023Z,99.90
2023-05-02T22:01:23.023Z,99.90
2023-05-02T22:03:50.388Z,99.90
2023-05-02T22:06:17.358Z,99.90
2023-05-02T22:08:44.731Z,99.90
2023-05-02T22:11:11.816Z,99.90
2023-05-02T22:13:39.083Z,99.90
2023-05-02T22:16:06.217Z,99.90
2023-05-02T22:18:33.506Z,99.90
2023-05-02T22:21:02.254Z,99.90
2023-05-02T22:23:31.146Z,99.90
2023-05-02T22:25:58.784Z,99.90
2023-05-02T22:28:25.859Z,99.90
2023-05-02T22:30:52.780Z,99.90
2023-05-02T22:33:19.773Z,99.90
2023-05-02T22:35:46.840Z,99.90
2023-05-02T22:38:17.184Z,99.90
2023-05-02T22:40:44.298Z,99.90
2023-05-02T22:43:11.576Z,99.90
2023-05-02T22:45:38.591Z,99.90
2023-05-02T22:48:07.022Z,99.90
2023-05-02T22:50:34.170Z,99.90
2023-05-02T22:53:03.931Z,99.90
2023-05-02T22:55:31.282Z,99.90
2023-05-02T22:57:58.480Z,99.90
2023-05-02T23:00:25.553Z,99.90
2023-05-02T23:02:52.707Z,99.90
2023-05-02T23:05:19.879Z,99.90
2023-05-02T23:07:46.878Z,99.90
2023-05-02T23:10:14.347Z,99.90
2023-05-02T23:12:42.169Z,99.90
2023-05-02T23:15:09.422Z,99.90
2023-05-02T23:17:40.082Z,99.90
2023-05-02T23:20:10.954Z,99.90
2023-05-02T23:22:43.309Z,99.90
2023-05-02T23:25:11.311Z,99.90
2023-05-02T23:27:38.378Z,99.90
2023-05-02T23:30:06.062Z,99.90
2023-05-02T23:32:33.676Z,99.90
2023-05-02T23:35:01.667Z,99.90
2023-05-02T23:37:28.865Z,99.90
2023-05-02T23:39:58.209Z,99.90
2023-05-02T23:42:25.193Z,99.90
2023-05-02T23:44:53.910Z,99.90
2023-05-02T23:47:22.985Z,99.90
2023-05-02T23:49:49.991Z,99.90
2023-05-02T23:52:16.928Z,99.90
2023-05-02T23:54:44.118Z,99.90
2023-05-02T23:57:12.074Z,99.90
2023-05-02T23:59:39.251Z,99.90
